createdAt,value
2018-06-03T00:00:21.564Z,17.40
2018-06-03T00:02:48.793Z,17.50
2018-06-03T00:05:15.247Z,17.50
2018-06-03T00:07:42.442Z,17.40
2018-06-03T00:10:08.931Z,17.40
2018-06-03T00:12:36.155Z,17.20
2018-06-03T00:15:02.735Z,17.20
2018-06-03T00:17:29.214Z,17.20
2018-06-03T00:19:55.716Z,17.20
2018-06-03T00:22:27.201Z,17.20
2018-06-03T00:24:53.691Z,17.10
2018-06-03T00:27:20.138Z,17.00
2018-06-03T00:29:46.664Z,17.00
2018-06-03T00:32:13.134Z,17.00
2018-06-03T00:34:39.615Z,16.90
2018-06-03T00:37:06.859Z,16.80
2018-06-03T00:39:34.101Z,16.80
2018-06-03T00:42:01.351Z,16.60
2018-06-03T00:44:28.602Z,16.60
2018-06-03T00:46:55.818Z,16.50
2018-06-03T00:49:22.295Z,16.50
2018-06-03T00:51:49.537Z,16.40
2018-06-03T00:54:16.850Z,16.30
2018-06-03T00:56:55.610Z,16.30
2018-06-03T00:59:22.118Z,16.20
2018-06-03T01:01:48.558Z,16.20
2018-06-03T01:04:15.038Z,16.20
2018-06-03T01:06:41.501Z,16.10
2018-06-03T01:09:08.015Z,16.00
2018-06-03T01:11:34.517Z,16.00
2018-06-03T01:14:01.744Z,16.00
2018-06-03T01:16:28.937Z,15.90
2018-06-03T01:18:56.174Z,15.90
2018-06-03T01:21:23.372Z,15.90
2018-06-03T01:23:49.917Z,15.80
2018-06-03T01:26:16.437Z,15.80
2018-06-03T01:28:42.905Z,15.70
2018-06-03T01:31:09.430Z,15.70
2018-06-03T01:33:35.853Z,15.50
2018-06-03T01:36:03.099Z,15.40
2018-06-03T01:38:29.572Z,15.40
2018-06-03T01:40:56.078Z,15.40
2018-06-03T01:43:22.541Z,15.30
2018-06-03T01:45:49.019Z,15.30
2018-06-03T01:48:15.527Z,15.30
2018-06-03T01:50:42.746Z,15.30
2018-06-03T01:53:09.218Z,15.10
2018-06-03T01:55:36.430Z,15.30
2018-06-03T01:58:02.921Z,15.20
2018-06-03T02:00:29.425Z,15.00
2018-06-03T02:02:56.654Z,15.00
2018-06-03T02:05:23.162Z,15.00
2018-06-03T02:07:49.586Z,14.90
2018-06-03T02:10:16.081Z,14.90
2018-06-03T02:12:42.590Z,14.90
2018-06-03T02:15:09.099Z,14.90
2018-06-03T02:17:35.563Z,14.90
2018-06-03T02:20:02.203Z,14.80
2018-06-03T02:22:28.673Z,14.80
2018-06-03T02:24:55.193Z,14.70
2018-06-03T02:27:22.491Z,14.70
2018-06-03T02:29:48.942Z,14.60
2018-06-03T02:32:15.434Z,14.60
2018-06-03T02:34:41.869Z,14.50
2018-06-03T02:37:08.443Z,14.30
2018-06-03T02:39:34.967Z,14.20
2018-06-03T02:42:01.469Z,14.20
2018-06-03T02:44:27.952Z,14.30
2018-06-03T02:46:54.387Z,14.30
2018-06-03T02:49:20.870Z,14.30
2018-06-03T02:51:47.334Z,14.30
2018-06-03T02:54:13.814Z,14.20
2018-06-03T02:56:41.007Z,14.10
2018-06-03T02:59:07.557Z,14.10
2018-06-03T03:01:34.004Z,14.10
2018-06-03T03:04:00.450Z,14.00
2018-06-03T03:06:26.937Z,14.10
2018-06-03T03:08:53.405Z,14.10
2018-06-03T03:11:19.863Z,14.10
2018-06-03T03:13:47.038Z,14.10
2018-06-03T03:16:13.489Z,14.10
2018-06-03T03:18:39.987Z,14.00
2018-06-03T03:21:07.177Z,14.00
2018-06-03T03:23:33.789Z,13.90
2018-06-03T03:26:01.060Z,13.80
2018-06-03T03:28:27.527Z,13.70
2018-06-03T03:30:53.971Z,13.80
2018-06-03T03:33:20.427Z,13.90
2018-06-03T03:35:47.609Z,13.90
2018-06-03T03:38:14.108Z,13.90
2018-06-03T03:40:41.325Z,13.90
2018-06-03T03:43:07.771Z,13.90
2018-06-03T03:45:34.357Z,13.90
2018-06-03T03:48:00.790Z,14.00
2018-06-03T03:50:27.327Z,14.00
2018-06-03T03:52:53.853Z,14.00
2018-06-03T03:55:20.350Z,14.10
2018-06-03T03:57:46.829Z,14.20
2018-06-03T04:00:13.366Z,14.20
2018-06-03T04:02:39.802Z,14.30
2018-06-03T04:05:06.877Z,14.30
2018-06-03T04:07:33.454Z,14.40
2018-06-03T04:10:00.651Z,14.40
2018-06-03T04:12:27.114Z,14.40
2018-06-03T04:14:53.649Z,14.40
2018-06-03T04:17:20.105Z,14.50
2018-06-03T04:19:47.795Z,14.70
2018-06-03T04:22:14.302Z,14.70
2018-06-03T04:24:41.513Z,15.00
2018-06-03T04:27:08.024Z,14.90
2018-06-03T04:29:34.610Z,15.10
2018-06-03T04:32:01.098Z,15.20
2018-06-03T04:34:27.633Z,15.30
2018-06-03T04:36:54.066Z,15.30
2018-06-03T04:39:20.553Z,15.40
2018-06-03T04:41:47.011Z,15.50
2018-06-03T04:44:14.194Z,15.70
2018-06-03T04:46:40.756Z,15.70
2018-06-03T04:49:07.221Z,15.70
2018-06-03T04:51:34.439Z,15.90
2018-06-03T04:54:01.041Z,15.70
2018-06-03T04:56:27.702Z,16.00
2018-06-03T04:58:54.477Z,16.10
2018-06-03T05:01:21.782Z,16.40
2018-06-03T05:03:48.306Z,16.40
2018-06-03T05:06:14.862Z,16.60
2018-06-03T05:08:41.326Z,16.70
2018-06-03T05:11:07.870Z,16.80
2018-06-03T05:13:34.304Z,16.90
2018-06-03T05:16:01.545Z,17.10
2018-06-03T05:18:28.758Z,17.30
2018-06-03T05:20:55.388Z,17.30
2018-06-03T05:23:21.860Z,17.50
2018-06-03T05:25:48.516Z,17.70
2018-06-03T05:28:14.985Z,17.80
2018-06-03T05:30:41.498Z,17.90
2018-06-03T05:33:08.843Z,18.10
2018-06-03T05:35:36.090Z,18.30
2018-06-03T05:38:02.617Z,18.30
2018-06-03T05:40:29.114Z,18.50
2018-06-03T05:42:55.591Z,18.70
2018-06-03T05:45:22.038Z,18.80
2018-06-03T05:47:48.573Z,18.90
2018-06-03T05:50:15.763Z,19.10
2018-06-03T05:52:42.343Z,19.10
2018-06-03T05:55:08.801Z,19.30
2018-06-03T05:57:36.030Z,19.50
2018-06-03T06:00:02.458Z,19.50
2018-06-03T06:02:28.938Z,19.70
2018-06-03T06:04:55.457Z,19.70
2018-06-03T06:07:21.955Z,20.00
2018-06-03T06:09:48.562Z,20.20
2018-06-03T06:12:15.034Z,20.40
2018-06-03T06:14:41.525Z,20.50
2018-06-03T06:17:07.985Z,20.50
2018-06-03T06:19:34.474Z,20.40
2018-06-03T06:22:00.943Z,20.50
2018-06-03T06:24:27.383Z,20.70
2018-06-03T06:26:53.822Z,21.00
2018-06-03T06:29:20.279Z,21.40
2018-06-03T06:31:47.554Z,22.40
2018-06-03T06:34:14.068Z,22.40
2018-06-03T06:36:41.261Z,23.10
2018-06-03T06:39:07.767Z,23.00
2018-06-03T06:41:35.016Z,24.00
2018-06-03T06:44:02.266Z,24.10
2018-06-03T06:46:29.746Z,23.80
2018-06-03T06:48:56.230Z,23.80
2018-06-03T06:51:22.739Z,24.10
2018-06-03T06:53:49.185Z,25.20
2018-06-03T06:56:15.759Z,26.10
2018-06-03T06:58:43.033Z,27.20
2018-06-03T07:01:09.547Z,27.20
2018-06-03T07:03:36.726Z,27.60
2018-06-03T07:06:03.282Z,27.60
2018-06-03T07:08:29.710Z,27.10
2018-06-03T07:10:56.304Z,26.20
2018-06-03T07:13:23.683Z,24.40
2018-06-03T07:15:50.225Z,24.40
2018-06-03T07:18:16.729Z,23.90
2018-06-03T07:20:44.028Z,23.60
2018-06-03T07:23:10.504Z,23.60
2018-06-03T07:25:37.097Z,23.50
2018-06-03T07:28:03.614Z,24.20
2018-06-03T07:30:30.074Z,24.40
2018-06-03T07:32:56.622Z,24.80
2018-06-03T07:35:23.116Z,26.30
2018-06-03T07:37:49.602Z,28.50
2018-06-03T07:40:16.074Z,30.50
2018-06-03T07:42:42.641Z,32.80
2018-06-03T07:45:09.175Z,33.50
2018-06-03T07:47:35.674Z,33.40
2018-06-03T07:50:02.889Z,32.30
2018-06-03T07:52:29.415Z,32.20
2018-06-03T07:54:55.884Z,31.30
2018-06-03T07:57:23.104Z,31.30
2018-06-03T07:59:49.635Z,31.20
2018-06-03T08:02:16.095Z,31.10
2018-06-03T08:04:43.319Z,31.30
2018-06-03T08:07:10.514Z,31.20
2018-06-03T08:09:37.050Z,31.20
2018-06-03T08:12:03.503Z,31.20
2018-06-03T08:14:30.011Z,31.30
2018-06-03T08:16:57.194Z,30.40
2018-06-03T08:19:23.747Z,30.40
2018-06-03T08:21:50.337Z,32.10
2018-06-03T08:24:17.579Z,32.30
2018-06-03T08:26:45.004Z,33.20
2018-06-03T08:29:11.863Z,33.20
2018-06-03T08:31:38.427Z,33.50
2018-06-03T08:34:05.792Z,32.40
2018-06-03T08:36:33.396Z,32.40
2018-06-03T08:38:59.870Z,32.30
2018-06-03T08:41:27.930Z,32.60
2018-06-03T08:43:55.136Z,32.50
2018-06-03T08:46:22.390Z,33.90
2018-06-03T08:48:48.834Z,33.90
2018-06-03T08:51:15.396Z,33.90
2018-06-03T08:53:42.598Z,31.30
2018-06-03T08:56:09.112Z,31.20
2018-06-03T08:58:35.554Z,30.50
2018-06-03T09:01:02.131Z,31.00
2018-06-03T09:03:28.600Z,32.40
2018-06-03T09:05:55.857Z,33.30
2018-06-03T09:08:22.321Z,33.30
2018-06-03T09:10:48.807Z,32.70
2018-06-03T09:13:16.051Z,31.50
2018-06-03T09:15:42.724Z,31.40
2018-06-03T09:18:09.215Z,31.80
2018-06-03T09:20:35.697Z,31.00
2018-06-03T09:23:02.314Z,29.30
2018-06-03T09:25:29.572Z,27.80
2018-06-03T09:27:56.055Z,27.80
2018-06-03T09:30:22.663Z,27.80
2018-06-03T09:32:49.191Z,28.00
2018-06-03T09:35:15.845Z,28.00
2018-06-03T09:37:42.311Z,27.60
2018-06-03T09:40:08.805Z,27.40
2018-06-03T09:42:35.343Z,26.80
2018-06-03T09:45:01.871Z,26.50
2018-06-03T09:47:28.476Z,26.60
2018-06-03T09:49:55.842Z,26.60
2018-06-03T09:52:23.185Z,26.80
2018-06-03T09:54:50.431Z,27.20
2018-06-03T09:57:17.794Z,27.50
2018-06-03T09:59:44.319Z,27.50
2018-06-03T10:02:11.553Z,27.90
2018-06-03T10:04:38.005Z,27.90
2018-06-03T10:07:05.304Z,27.30
2018-06-03T10:09:31.833Z,27.30
2018-06-03T10:11:58.422Z,27.20
2018-06-03T10:14:24.889Z,27.10
2018-06-03T10:16:51.384Z,26.90
2018-06-03T10:19:17.930Z,26.80
2018-06-03T10:21:44.417Z,26.70
2018-06-03T10:24:10.923Z,26.50
2018-06-03T10:26:37.408Z,26.30
2018-06-03T10:29:03.962Z,26.40
2018-06-03T10:31:30.427Z,26.40
2018-06-03T10:33:56.979Z,26.60
2018-06-03T10:42:19.711Z,27.30
2018-06-03T10:44:46.298Z,27.30
2018-06-03T10:47:12.767Z,28.10
2018-06-03T10:49:39.315Z,28.40
2018-06-03T10:52:05.821Z,28.40
2018-06-03T10:54:32.313Z,28.90
2018-06-03T10:56:59.569Z,28.50
2018-06-03T10:59:26.890Z,28.40
2018-06-03T11:01:53.378Z,28.40
2018-06-03T11:04:19.974Z,28.70
2018-06-03T11:06:46.439Z,28.80
2018-06-03T11:09:13.005Z,27.50
2018-06-03T11:11:39.479Z,27.50
2018-06-03T11:14:06.682Z,28.10
2018-06-03T11:16:33.218Z,28.10
2018-06-03T11:18:59.756Z,28.60
2018-06-03T11:21:26.239Z,30.00
2018-06-03T11:23:53.461Z,32.70
2018-06-03T11:26:19.966Z,32.60
2018-06-03T11:28:46.436Z,33.50
2018-06-03T11:31:12.906Z,34.50
2018-06-03T11:33:39.441Z,35.00
2018-06-03T11:36:05.916Z,33.50
2018-06-03T11:38:32.436Z,33.10
2018-06-03T11:40:59.082Z,33.20
2018-06-03T11:43:25.517Z,32.80
2018-06-03T11:45:52.063Z,32.80
2018-06-03T11:48:18.513Z,32.50
2018-06-03T11:50:45.151Z,33.10
2018-06-03T11:53:11.605Z,33.50
2018-06-03T11:55:38.868Z,34.00
2018-06-03T11:58:17.407Z,34.00
2018-06-03T12:00:44.037Z,33.90
2018-06-03T12:03:10.524Z,33.30
2018-06-03T12:05:36.998Z,33.70
2018-06-03T12:08:03.434Z,34.50
2018-06-03T12:10:29.911Z,35.10
2018-06-03T12:16:23.872Z,34.70
2018-06-03T12:18:51.823Z,35.40
2018-06-03T12:23:47.263Z,34.80
2018-06-03T12:26:15.274Z,33.90
2018-06-03T12:28:43.231Z,32.80
2018-06-03T12:31:11.074Z,33.10
2018-06-03T12:33:38.882Z,34.50
2018-06-03T12:36:06.665Z,35.30
2018-06-03T12:38:34.987Z,34.10
2018-06-03T12:41:03.445Z,34.30
2018-06-03T12:43:31.462Z,35.30
2018-06-03T12:45:59.285Z,33.50
2018-06-03T12:48:27.138Z,32.80
2018-06-03T12:50:54.850Z,32.70
2018-06-03T12:53:22.686Z,33.70
2018-06-03T12:55:50.464Z,33.90
2018-06-03T12:58:18.235Z,34.00
2018-06-03T13:00:46.159Z,34.60
2018-06-03T13:03:13.961Z,36.10
2018-06-03T13:05:41.813Z,35.90
2018-06-03T13:08:09.541Z,36.10
2018-06-03T13:10:37.515Z,36.70
2018-06-03T13:13:05.443Z,36.30
2018-06-03T13:15:33.281Z,37.00
2018-06-03T13:18:01.055Z,36.50
2018-06-03T13:20:28.817Z,37.50
2018-06-03T13:22:56.748Z,36.50
2018-06-03T13:25:24.604Z,35.80
2018-06-03T13:27:52.385Z,36.00
2018-06-03T13:32:47.824Z,34.50
2018-06-03T13:35:15.623Z,35.10
2018-06-03T13:37:43.369Z,35.80
2018-06-03T13:40:11.189Z,35.80
2018-06-03T13:42:39.048Z,35.20
2018-06-03T13:45:06.863Z,35.40
2018-06-03T13:47:34.611Z,35.00
2018-06-03T13:50:02.592Z,34.10
2018-06-03T13:52:30.355Z,34.60
2018-06-03T13:54:58.159Z,34.40
2018-06-03T13:57:26.906Z,33.70
2018-06-03T13:59:55.284Z,32.60
2018-06-03T14:02:24.396Z,31.70
2018-06-03T14:04:52.391Z,31.10
2018-06-03T14:07:20.243Z,29.50
2018-06-03T14:09:48.073Z,29.30
2018-06-03T14:12:15.972Z,29.40
2018-06-03T14:14:43.897Z,29.00
2018-06-03T14:19:39.492Z,29.30
2018-06-03T14:22:07.336Z,30.10
2018-06-03T14:24:35.201Z,30.80
2018-06-03T14:27:03.067Z,31.00
2018-06-03T14:29:30.943Z,31.80
2018-06-03T14:31:58.921Z,32.80
2018-06-03T14:34:26.744Z,32.80
2018-06-03T14:36:54.744Z,32.50
2018-06-03T14:41:50.362Z,30.40
2018-06-03T14:44:18.336Z,28.80
2018-06-03T14:46:46.234Z,29.10
2018-06-03T14:49:14.131Z,28.90
2018-06-03T14:54:10.176Z,27.50
2018-06-03T14:56:38.312Z,27.00
2018-06-03T14:59:06.205Z,26.70
2018-06-03T15:01:34.399Z,27.00
2018-06-03T15:04:02.336Z,27.30
2018-06-03T15:06:30.311Z,27.40
2018-06-03T15:08:58.270Z,27.50
2018-06-03T15:11:26.271Z,28.20
2018-06-03T15:13:54.409Z,28.10
2018-06-03T15:16:22.379Z,28.10
2018-06-03T15:18:50.458Z,29.30
2018-06-03T15:21:18.343Z,30.90
2018-06-03T15:23:46.329Z,32.40
2018-06-03T15:26:14.325Z,32.90
2018-06-03T15:28:42.242Z,32.40
2018-06-03T15:31:10.264Z,32.10
2018-06-03T15:33:38.308Z,31.40
2018-06-03T15:36:06.484Z,31.10
2018-06-03T15:38:34.350Z,31.20
2018-06-03T15:41:02.316Z,30.00
2018-06-03T15:43:30.193Z,28.50
2018-06-03T15:45:58.165Z,28.10
2018-06-03T15:48:26.254Z,27.60
2018-06-03T15:50:54.315Z,27.20
2018-06-03T15:53:22.276Z,27.50
2018-06-03T15:55:50.245Z,27.40
2018-06-03T15:58:18.216Z,27.50
2018-06-03T16:00:46.185Z,27.80
2018-06-03T16:03:14.673Z,28.00
2018-06-03T16:05:42.741Z,28.30
2018-06-03T16:08:10.588Z,28.20
2018-06-03T16:10:38.382Z,27.80
2018-06-03T16:13:06.308Z,28.20
2018-06-03T16:15:34.099Z,28.30
2018-06-03T16:18:01.917Z,28.20
2018-06-03T16:20:29.724Z,28.10
2018-06-03T16:22:57.627Z,28.00
2018-06-03T16:25:25.401Z,27.80
2018-06-03T16:27:53.216Z,27.90
2018-06-03T16:32:48.691Z,27.70
2018-06-03T16:35:16.789Z,27.30
2018-06-03T16:37:44.581Z,27.30
2018-06-03T16:40:12.360Z,27.20
2018-06-03T16:42:40.097Z,26.90
2018-06-03T16:45:07.945Z,26.60
2018-06-03T16:47:35.795Z,26.30
2018-06-03T16:50:03.675Z,26.00
2018-06-03T16:52:31.402Z,25.80
2018-06-03T16:54:59.131Z,25.60
2018-06-03T16:57:27.158Z,25.60
2018-06-03T16:59:55.037Z,25.50
2018-06-03T17:02:22.874Z,25.70
2018-06-03T17:04:50.791Z,25.40
2018-06-03T17:07:18.641Z,25.30
2018-06-03T17:09:47.009Z,25.30
2018-06-03T17:12:15.947Z,25.30
2018-06-03T17:14:43.865Z,25.30
2018-06-03T17:17:11.844Z,25.40
2018-06-03T17:19:39.657Z,25.50
2018-06-03T17:22:07.437Z,25.50
2018-06-03T17:24:35.383Z,25.40
2018-06-03T17:27:03.488Z,25.30
2018-06-03T17:29:31.303Z,25.20
2018-06-03T17:31:59.149Z,25.40
2018-06-03T17:34:27.080Z,25.60
2018-06-03T17:36:54.870Z,25.60
2018-06-03T17:39:22.666Z,25.70
2018-06-03T17:41:50.563Z,25.60
2018-06-03T17:44:18.417Z,25.70
2018-06-03T17:46:46.261Z,25.60
2018-06-03T17:49:14.010Z,25.60
2018-06-03T17:51:41.911Z,25.60
2018-06-03T17:54:09.762Z,25.70
2018-06-03T17:56:37.567Z,25.80
2018-06-03T17:59:09.086Z,25.50
2018-06-03T18:01:36.898Z,25.40
2018-06-03T18:04:04.759Z,25.50
2018-06-03T18:06:32.521Z,25.60
2018-06-03T18:09:00.434Z,25.30
2018-06-03T18:11:28.296Z,25.10
2018-06-03T18:13:56.135Z,24.90
2018-06-03T18:16:24.004Z,24.70
2018-06-03T18:23:47.441Z,24.60
2018-06-03T18:26:16.481Z,24.50
2018-06-03T18:28:44.334Z,24.40
2018-06-03T18:31:12.176Z,24.40
2018-06-03T18:33:40.972Z,24.30
2018-06-03T18:36:08.898Z,24.20
2018-06-03T18:38:36.668Z,24.00
2018-06-03T18:41:04.686Z,23.90
2018-06-03T18:43:32.516Z,23.80
2018-06-03T18:46:00.348Z,23.70
2018-06-03T18:48:28.484Z,23.60
2018-06-03T18:50:56.786Z,23.50
2018-06-03T18:53:24.615Z,23.30
2018-06-03T18:55:53.774Z,23.00
2018-06-03T18:58:23.562Z,23.00
2018-06-03T19:01:21.284Z,22.80
2018-06-03T19:04:05.470Z,22.70
2018-06-03T19:06:41.157Z,22.70
2018-06-03T19:11:44.816Z,22.60
2018-06-03T19:14:12.741Z,22.50
2018-06-03T19:16:40.654Z,22.50
2018-06-03T19:19:08.419Z,22.40
2018-06-03T19:34:35.858Z,22.30
2018-06-03T19:37:03.829Z,22.10
2018-06-03T19:39:31.694Z,21.50
2018-06-03T19:42:00.119Z,21.40
2018-06-03T19:44:28.105Z,21.30
2018-06-03T19:46:56.283Z,21.30
2018-06-03T19:49:24.284Z,21.20
2018-06-03T19:51:52.431Z,21.10
2018-06-03T19:54:20.453Z,21.00
2018-06-03T19:56:49.266Z,20.80
2018-06-03T19:59:17.481Z,20.40
2018-06-03T20:01:45.465Z,20.40
2018-06-03T20:04:13.388Z,20.00
2018-06-03T20:06:41.354Z,19.90
2018-06-03T20:09:09.725Z,19.90
2018-06-03T20:11:37.763Z,19.90
2018-06-03T20:14:05.988Z,19.80
2018-06-03T20:16:33.985Z,19.80
2018-06-03T20:19:01.840Z,19.70
2018-06-03T20:21:29.806Z,19.70
2018-06-03T20:23:57.700Z,19.80
2018-06-03T20:26:25.666Z,19.70
2018-06-03T20:28:54.190Z,19.60
2018-06-03T20:33:51.716Z,19.50
2018-06-03T20:36:21.387Z,19.30
2018-06-03T20:38:49.520Z,19.30
2018-06-03T21:12:04.206Z,18.70
2018-06-03T21:20:08.331Z,18.40
2018-06-03T21:22:36.095Z,18.20
2018-06-03T21:25:03.875Z,18.10
2018-06-03T21:27:31.581Z,18.10
2018-06-03T21:29:59.283Z,18.00
2018-06-03T21:32:26.958Z,18.00
2018-06-03T21:34:54.743Z,17.80
2018-06-03T21:37:22.519Z,17.80
2018-06-03T21:39:51.886Z,17.70
2018-06-03T21:42:19.590Z,17.50
2018-06-03T21:44:47.325Z,17.60
2018-06-03T21:47:15.184Z,17.50
2018-06-03T21:49:42.888Z,17.50
2018-06-03T21:52:10.697Z,17.60
2018-06-03T21:54:38.474Z,17.50
2018-06-03T21:57:06.398Z,17.50
2018-06-03T21:59:34.216Z,17.50
2018-06-03T22:06:58.877Z,17.20
2018-06-03T22:09:26.614Z,17.10
2018-06-03T22:11:54.366Z,17.10
2018-06-03T22:14:22.145Z,17.10
2018-06-03T22:16:49.921Z,17.10
2018-06-03T22:19:17.709Z,17.10
2018-06-03T22:21:45.546Z,17.10
2018-06-03T22:24:13.355Z,17.10
2018-06-03T22:26:41.290Z,17.10
2018-06-03T22:29:09.039Z,17.00
2018-06-03T22:31:36.905Z,17.00
2018-06-03T22:34:04.942Z,16.90
2018-06-03T22:36:33.076Z,16.80
2018-06-03T22:39:00.790Z,16.80
2018-06-03T22:41:28.813Z,16.70
2018-06-03T22:43:57.030Z,16.70
2018-06-03T22:46:24.789Z,16.70
2018-06-03T22:48:52.734Z,16.70
2018-06-03T22:53:48.151Z,16.60
2018-06-03T22:56:15.983Z,16.50
2018-06-03T22:58:44.102Z,16.50
2018-06-03T23:01:11.871Z,16.40
2018-06-03T23:03:39.880Z,16.30
2018-06-03T23:08:35.522Z,16.30
2018-06-03T23:11:03.609Z,16.30
2018-06-03T23:13:31.532Z,16.20
2018-06-03T23:15:59.470Z,16.20
2018-06-03T23:18:28.019Z,16.10
2018-06-03T23:20:55.877Z,16.10
2018-06-03T23:23:23.778Z,16.10
2018-06-03T23:25:51.857Z,15.90
2018-06-03T23:28:19.922Z,15.90
2018-06-03T23:30:47.813Z,15.80
2018-06-03T23:33:15.637Z,15.80
2018-06-03T23:35:43.678Z,15.80
2018-06-03T23:38:12.435Z,15.70
2018-06-03T23:40:40.169Z,15.60
2018-06-03T23:43:07.930Z,15.70
2018-06-03T23:45:35.755Z,15.70
2018-06-03T23:48:03.579Z,15.60
2018-06-03T23:50:31.316Z,15.60
2018-06-03T23:52:59.139Z,15.60
2018-06-03T23:55:27.086Z,15.40
2018-06-03T23:57:55.146Z,15.40
